sensor_id;sensor_type;location;lat;lon;timestamp;P1;durP1;ratioP1;P2;durP2;ratioP2
12896;SDS011;6516;35.028;32.372;2023-06-22T00:02:25;12.15;;;8.85;;
12896;SDS011;6516;35.028;32.372;2023-06-22T00:04:53;12.80;;;8.80;;
12896;SDS011;6516;35.028;32.372;2023-06-22T00:07:21;16.35;;;9.50;;
12896;SDS011;6516;35.028;32.372;2023-06-22T00:09:49;12.37;;;9.00;;
12896;SDS011;6516;35.028;32.372;2023-06-22T00:12:16;14.65;;;8.70;;
12896;SDS011;6516;35.028;32.372;2023-06-22T00:14:44;12.95;;;8.40;;
12896;SDS011;6516;35.028;32.372;2023-06-22T00:17:13;12.95;;;9.10;;
12896;SDS011;6516;35.028;32.372;2023-06-22T00:19:41;14.32;;;9.05;;
12896;SDS011;6516;35.028;32.372;2023-06-22T00:22:09;12.27;;;9.37;;
12896;SDS011;6516;35.028;32.372;2023-06-22T00:24:37;14.55;;;9.13;;
12896;SDS011;6516;35.028;32.372;2023-06-22T00:27:05;12.13;;;9.05;;
12896;SDS011;6516;35.028;32.372;2023-06-22T00:29:32;15.55;;;9.80;;
12896;SDS011;6516;35.028;32.372;2023-06-22T00:32:00;12.60;;;9.40;;
12896;SDS011;6516;35.028;32.372;2023-06-22T00:34:29;13.30;;;9.63;;
12896;SDS011;6516;35.028;32.372;2023-06-22T00:36:57;15.00;;;10.15;;
12896;SDS011;6516;35.028;32.372;2023-06-22T00:39:25;14.68;;;9.98;;
12896;SDS011;6516;35.028;32.372;2023-06-22T00:41:53;16.63;;;10.93;;
12896;SDS011;6516;35.028;32.372;2023-06-22T00:44:21;13.20;;;9.75;;
12896;SDS011;6516;35.028;32.372;2023-06-22T00:46:49;12.43;;;9.80;;
12896;SDS011;6516;35.028;32.372;2023-06-22T00:49:17;15.32;;;10.23;;
12896;SDS011;6516;35.028;32.372;2023-06-22T00:51:48;15.07;;;10.93;;
12896;SDS011;6516;35.028;32.372;2023-06-22T00:54:17;15.90;;;11.10;;
12896;SDS011;6516;35.028;32.372;2023-06-22T00:56:49;14.80;;;10.73;;
12896;SDS011;6516;35.028;32.372;2023-06-22T00:59:20;17.47;;;11.20;;
12896;SDS011;6516;35.028;32.372;2023-06-22T01:01:48;15.60;;;11.10;;
12896;SDS011;6516;35.028;32.372;2023-06-22T01:04:16;15.80;;;11.68;;
12896;SDS011;6516;35.028;32.372;2023-06-22T01:06:45;17.48;;;11.85;;
12896;SDS011;6516;35.028;32.372;2023-06-22T01:09:26;17.38;;;11.95;;
12896;SDS011;6516;35.028;32.372;2023-06-22T01:12:00;15.13;;;11.47;;
12896;SDS011;6516;35.028;32.372;2023-06-22T01:14:32;14.05;;;10.90;;
12896;SDS011;6516;35.028;32.372;2023-06-22T01:17:09;16.52;;;11.35;;
12896;SDS011;6516;35.028;32.372;2023-06-22T01:19:43;15.27;;;11.40;;
12896;SDS011;6516;35.028;32.372;2023-06-22T01:22:15;16.30;;;11.70;;
12896;SDS011;6516;35.028;32.372;2023-06-22T01:24:47;15.43;;;11.77;;
12896;SDS011;6516;35.028;32.372;2023-06-22T01:27:31;15.32;;;11.05;;
12896;SDS011;6516;35.028;32.372;2023-06-22T01:30:09;16.73;;;11.85;;
12896;SDS011;6516;35.028;32.372;2023-06-22T01:32:38;15.25;;;11.20;;
12896;SDS011;6516;35.028;32.372;2023-06-22T01:35:08;17.20;;;12.02;;
12896;SDS011;6516;35.028;32.372;2023-06-22T01:37:37;15.63;;;11.00;;
12896;SDS011;6516;35.028;32.372;2023-06-22T01:40:06;15.45;;;11.23;;
12896;SDS011;6516;35.028;32.372;2023-06-22T01:42:35;12.90;;;10.50;;
12896;SDS011;6516;35.028;32.372;2023-06-22T01:45:05;14.57;;;10.60;;
12896;SDS011;6516;35.028;32.372;2023-06-22T01:47:36;15.05;;;11.00;;
12896;SDS011;6516;35.028;32.372;2023-06-22T01:50:04;15.03;;;10.60;;
12896;SDS011;6516;35.028;32.372;2023-06-22T01:52:33;14.57;;;11.07;;
12896;SDS011;6516;35.028;32.372;2023-06-22T01:55:01;16.20;;;11.25;;
12896;SDS011;6516;35.028;32.372;2023-06-22T01:57:30;12.95;;;10.07;;
12896;SDS011;6516;35.028;32.372;2023-06-22T02:00:00;13.48;;;10.52;;
12896;SDS011;6516;35.028;32.372;2023-06-22T02:02:32;16.27;;;10.67;;
12896;SDS011;6516;35.028;32.372;2023-06-22T02:05:06;15.65;;;10.23;;
12896;SDS011;6516;35.028;32.372;2023-06-22T02:07:37;14.48;;;9.52;;
12896;SDS011;6516;35.028;32.372;2023-06-22T02:10:12;14.25;;;10.20;;
12896;SDS011;6516;35.028;32.372;2023-06-22T02:12:43;13.15;;;9.57;;
12896;SDS011;6516;35.028;32.372;2023-06-22T02:15:12;12.90;;;9.80;;
12896;SDS011;6516;35.028;32.372;2023-06-22T02:17:42;13.40;;;9.13;;
12896;SDS011;6516;35.028;32.372;2023-06-22T02:20:12;12.15;;;9.50;;
12896;SDS011;6516;35.028;32.372;2023-06-22T02:22:40;10.98;;;8.73;;
12896;SDS011;6516;35.028;32.372;2023-06-22T02:25:08;13.10;;;9.60;;
12896;SDS011;6516;35.028;32.372;2023-06-22T02:27:36;11.53;;;8.60;;
12896;SDS011;6516;35.028;32.372;2023-06-22T02:30:06;11.10;;;8.05;;
12896;SDS011;6516;35.028;32.372;2023-06-22T02:32:35;9.82;;;7.30;;
12896;SDS011;6516;35.028;32.372;2023-06-22T02:35:09;10.73;;;7.75;;
12896;SDS011;6516;35.028;32.372;2023-06-22T02:37:37;11.90;;;7.50;;
12896;SDS011;6516;35.028;32.372;2023-06-22T02:40:08;10.07;;;7.10;;
12896;SDS011;6516;35.028;32.372;2023-06-22T02:42:37;11.45;;;7.20;;
12896;SDS011;6516;35.028;32.372;2023-06-22T02:45:07;10.05;;;7.03;;
12896;SDS011;6516;35.028;32.372;2023-06-22T02:47:35;9.48;;;6.40;;
12896;SDS011;6516;35.028;32.372;2023-06-22T02:50:03;12.18;;;6.70;;
12896;SDS011;6516;35.028;32.372;2023-06-22T02:52:34;9.17;;;6.33;;
12896;SDS011;6516;35.028;32.372;2023-06-22T02:55:02;9.73;;;6.03;;
12896;SDS011;6516;35.028;32.372;2023-06-22T02:57:30;9.88;;;6.03;;
12896;SDS011;6516;35.028;32.372;2023-06-22T02:59:58;9.10;;;6.28;;
12896;SDS011;6516;35.028;32.372;2023-06-22T03:02:25;11.57;;;5.80;;
12896;SDS011;6516;35.028;32.372;2023-06-22T03:04:53;9.53;;;6.30;;
12896;SDS011;6516;35.028;32.372;2023-06-22T03:07:21;9.18;;;5.70;;
12896;SDS011;6516;35.028;32.372;2023-06-22T03:09:50;7.82;;;5.72;;
12896;SDS011;6516;35.028;32.372;2023-06-22T03:12:18;10.30;;;6.00;;
12896;SDS011;6516;35.028;32.372;2023-06-22T03:14:46;9.23;;;5.75;;
12896;SDS011;6516;35.028;32.372;2023-06-22T03:17:13;8.87;;;5.83;;
12896;SDS011;6516;35.028;32.372;2023-06-22T03:19:41;8.73;;;6.03;;
12896;SDS011;6516;35.028;32.372;2023-06-22T03:22:09;8.20;;;5.70;;
12896;SDS011;6516;35.028;32.372;2023-06-22T03:24:37;9.32;;;5.32;;
12896;SDS011;6516;35.028;32.372;2023-06-22T03:27:08;8.35;;;5.70;;
12896;SDS011;6516;35.028;32.372;2023-06-22T03:29:35;7.23;;;5.43;;
12896;SDS011;6516;35.028;32.372;2023-06-22T03:32:03;8.90;;;5.30;;
12896;SDS011;6516;35.028;32.372;2023-06-22T03:34:32;6.78;;;4.80;;
12896;SDS011;6516;35.028;32.372;2023-06-22T03:37:02;8.70;;;5.65;;
12896;SDS011;6516;35.028;32.372;2023-06-22T03:39:31;7.90;;;5.10;;
12896;SDS011;6516;35.028;32.372;2023-06-22T03:41:59;8.93;;;5.60;;
12896;SDS011;6516;35.028;32.372;2023-06-22T03:44:28;8.13;;;5.70;;
12896;SDS011;6516;35.028;32.372;2023-06-22T03:46:56;7.75;;;5.30;;
12896;SDS011;6516;35.028;32.372;2023-06-22T03:49:23;8.95;;;5.05;;
12896;SDS011;6516;35.028;32.372;2023-06-22T03:51:51;9.02;;;5.15;;
12896;SDS011;6516;35.028;32.372;2023-06-22T03:54:19;8.60;;;5.77;;
12896;SDS011;6516;35.028;32.372;2023-06-22T03:56:47;8.48;;;5.28;;
12896;SDS011;6516;35.028;32.372;2023-06-22T03:59:14;9.85;;;5.30;;
12896;SDS011;6516;35.028;32.372;2023-06-22T04:01:44;10.93;;;5.32;;
12896;SDS011;6516;35.028;32.372;2023-06-22T04:04:12;7.57;;;4.88;;
12896;SDS011;6516;35.028;32.372;2023-06-22T04:06:40;7.40;;;5.40;;
12896;SDS011;6516;35.028;32.372;2023-06-22T04:09:08;8.75;;;5.57;;
12896;SDS011;6516;35.028;32.372;2023-06-22T04:11:36;7.65;;;5.10;;
12896;SDS011;6516;35.028;32.372;2023-06-22T04:14:04;8.02;;;5.07;;
12896;SDS011;6516;35.028;32.372;2023-06-22T04:16:31;7.43;;;5.18;;
12896;SDS011;6516;35.028;32.372;2023-06-22T04:19:01;8.83;;;5.40;;
12896;SDS011;6516;35.028;32.372;2023-06-22T04:21:29;7.70;;;5.18;;
12896;SDS011;6516;35.028;32.372;2023-06-22T04:23:57;7.07;;;5.40;;
12896;SDS011;6516;35.028;32.372;2023-06-22T04:26:24;7.68;;;5.50;;
12896;SDS011;6516;35.028;32.372;2023-06-22T04:28:52;7.43;;;5.28;;
12896;SDS011;6516;35.028;32.372;2023-06-22T04:31:21;8.43;;;5.07;;
12896;SDS011;6516;35.028;32.372;2023-06-22T04:33:57;7.38;;;5.20;;
12896;SDS011;6516;35.028;32.372;2023-06-22T04:36:32;7.78;;;5.20;;
12896;SDS011;6516;35.028;32.372;2023-06-22T04:39:05;7.63;;;4.80;;
12896;SDS011;6516;35.028;32.372;2023-06-22T04:41:34;6.85;;;4.50;;
12896;SDS011;6516;35.028;32.372;2023-06-22T04:44:09;6.87;;;4.43;;
12896;SDS011;6516;35.028;32.372;2023-06-22T04:46:37;6.72;;;4.53;;
12896;SDS011;6516;35.028;32.372;2023-06-22T04:49:06;6.80;;;4.65;;
12896;SDS011;6516;35.028;32.372;2023-06-22T04:51:40;7.72;;;4.95;;
12896;SDS011;6516;35.028;32.372;2023-06-22T04:54:09;6.78;;;4.82;;
12896;SDS011;6516;35.028;32.372;2023-06-22T04:56:37;8.00;;;4.80;;
12896;SDS011;6516;35.028;32.372;2023-06-22T04:59:06;7.68;;;4.70;;
12896;SDS011;6516;35.028;32.372;2023-06-22T05:01:38;7.22;;;4.22;;
12896;SDS011;6516;35.028;32.372;2023-06-22T05:04:06;7.82;;;4.30;;
12896;SDS011;6516;35.028;32.372;2023-06-22T05:06:34;7.60;;;4.70;;
12896;SDS011;6516;35.028;32.372;2023-06-22T05:09:03;7.07;;;4.30;;
12896;SDS011;6516;35.028;32.372;2023-06-22T05:11:31;7.05;;;4.20;;
12896;SDS011;6516;35.028;32.372;2023-06-22T05:13:59;7.32;;;4.45;;
12896;SDS011;6516;35.028;32.372;2023-06-22T05:16:26;6.15;;;4.25;;
12896;SDS011;6516;35.028;32.372;2023-06-22T05:18:54;7.65;;;4.75;;
12896;SDS011;6516;35.028;32.372;2023-06-22T05:21:23;7.60;;;4.77;;
12896;SDS011;6516;35.028;32.372;2023-06-22T05:23:53;10.15;;;4.78;;
12896;SDS011;6516;35.028;32.372;2023-06-22T05:26:22;7.47;;;4.47;;
12896;SDS011;6516;35.028;32.372;2023-06-22T05:28:51;7.20;;;4.47;;
12896;SDS011;6516;35.028;32.372;2023-06-22T05:31:20;8.23;;;4.20;;
12896;SDS011;6516;35.028;32.372;2023-06-22T05:33:48;7.20;;;4.57;;
12896;SDS011;6516;35.028;32.372;2023-06-22T05:36:19;8.90;;;4.45;;
12896;SDS011;6516;35.028;32.372;2023-06-22T05:38:50;6.45;;;4.43;;
12896;SDS011;6516;35.028;32.372;2023-06-22T05:41:18;9.30;;;4.63;;
12896;SDS011;6516;35.028;32.372;2023-06-22T05:43:48;6.60;;;4.47;;
12896;SDS011;6516;35.028;32.372;2023-06-22T05:46:16;6.60;;;4.30;;
12896;SDS011;6516;35.028;32.372;2023-06-22T05:48:45;6.55;;;4.60;;
12896;SDS011;6516;35.028;32.372;2023-06-22T05:51:13;7.80;;;4.25;;
12896;SDS011;6516;35.028;32.372;2023-06-22T05:53:40;7.20;;;4.38;;
12896;SDS011;6516;35.028;32.372;2023-06-22T05:56:09;6.43;;;4.25;;
12896;SDS011;6516;35.028;32.372;2023-06-22T05:58:37;9.03;;;4.30;;
12896;SDS011;6516;35.028;32.372;2023-06-22T06:01:06;7.07;;;4.60;;
12896;SDS011;6516;35.028;32.372;2023-06-22T06:03:34;6.93;;;4.60;;
12896;SDS011;6516;35.028;32.372;2023-06-22T06:06:06;7.03;;;4.53;;
12896;SDS011;6516;35.028;32.372;2023-06-22T06:08:36;7.28;;;4.55;;
12896;SDS011;6516;35.028;32.372;2023-06-22T06:11:06;8.43;;;4.67;;
12896;SDS011;6516;35.028;32.372;2023-06-22T06:13:34;6.57;;;4.47;;
12896;SDS011;6516;35.028;32.372;2023-06-22T06:16:02;7.82;;;4.20;;
12896;SDS011;6516;35.028;32.372;2023-06-22T06:18:32;7.15;;;4.93;;
12896;SDS011;6516;35.028;32.372;2023-06-22T06:20:59;5.95;;;4.22;;
12896;SDS011;6516;35.028;32.372;2023-06-22T06:23:27;6.63;;;4.40;;
12896;SDS011;6516;35.028;32.372;2023-06-22T06:25:55;6.32;;;4.10;;
12896;SDS011;6516;35.028;32.372;2023-06-22T06:28:24;8.10;;;4.70;;
12896;SDS011;6516;35.028;32.372;2023-06-22T06:30:52;6.50;;;4.25;;
12896;SDS011;6516;35.028;32.372;2023-06-22T06:33:20;6.68;;;4.45;;
12896;SDS011;6516;35.028;32.372;2023-06-22T06:35:50;6.00;;;4.43;;
12896;SDS011;6516;35.028;32.372;2023-06-22T06:38:18;7.50;;;4.53;;
12896;SDS011;6516;35.028;32.372;2023-06-22T06:40:46;7.43;;;4.35;;
12896;SDS011;6516;35.028;32.372;2023-06-22T06:43:14;7.35;;;4.50;;
12896;SDS011;6516;35.028;32.372;2023-06-22T06:45:42;7.38;;;4.07;;
12896;SDS011;6516;35.028;32.372;2023-06-22T06:48:09;7.30;;;4.60;;
12896;SDS011;6516;35.028;32.372;2023-06-22T06:50:37;7.03;;;4.47;;
12896;SDS011;6516;35.028;32.372;2023-06-22T06:53:06;6.32;;;4.10;;
12896;SDS011;6516;35.028;32.372;2023-06-22T06:55:34;9.07;;;4.78;;
12896;SDS011;6516;35.028;32.372;2023-06-22T06:58:03;6.35;;;4.55;;
12896;SDS011;6516;35.028;32.372;2023-06-22T07:00:33;7.57;;;4.40;;
12896;SDS011;6516;35.028;32.372;2023-06-22T07:03:01;8.30;;;4.38;;
12896;SDS011;6516;35.028;32.372;2023-06-22T07:05:28;6.22;;;4.40;;
12896;SDS011;6516;35.028;32.372;2023-06-22T07:07:56;6.68;;;4.30;;
12896;SDS011;6516;35.028;32.372;2023-06-22T07:10:26;6.82;;;3.95;;
12896;SDS011;6516;35.028;32.372;2023-06-22T07:12:54;8.27;;;4.07;;
12896;SDS011;6516;35.028;32.372;2023-06-22T07:15:22;7.63;;;4.38;;
12896;SDS011;6516;35.028;32.372;2023-06-22T07:17:50;6.75;;;3.97;;
12896;SDS011;6516;35.028;32.372;2023-06-22T07:20:18;7.10;;;4.45;;
12896;SDS011;6516;35.028;32.372;2023-06-22T07:22:46;7.13;;;4.50;;
12896;SDS011;6516;35.028;32.372;2023-06-22T07:25:13;5.13;;;3.27;;
12896;SDS011;6516;35.028;32.372;2023-06-22T07:27:56;6.50;;;4.15;;
12896;SDS011;6516;35.028;32.372;2023-06-22T07:30:26;6.78;;;4.00;;
12896;SDS011;6516;35.028;32.372;2023-06-22T07:32:54;7.25;;;4.10;;
12896;SDS011;6516;35.028;32.372;2023-06-22T07:35:23;6.95;;;3.83;;
12896;SDS011;6516;35.028;32.372;2023-06-22T07:37:51;7.50;;;4.67;;
12896;SDS011;6516;35.028;32.372;2023-06-22T07:40:19;6.68;;;4.05;;
12896;SDS011;6516;35.028;32.372;2023-06-22T07:42:49;10.15;;;4.32;;
12896;SDS011;6516;35.028;32.372;2023-06-22T07:45:18;8.60;;;4.60;;
12896;SDS011;6516;35.028;32.372;2023-06-22T07:47:46;8.43;;;4.70;;
12896;SDS011;6516;35.028;32.372;2023-06-22T07:50:14;8.63;;;4.50;;
12896;SDS011;6516;35.028;32.372;2023-06-22T07:52:41;7.20;;;4.65;;
12896;SDS011;6516;35.028;32.372;2023-06-22T07:55:09;7.85;;;5.00;;
12896;SDS011;6516;35.028;32.372;2023-06-22T07:57:37;6.95;;;4.95;;
12896;SDS011;6516;35.028;32.372;2023-06-22T08:00:09;8.65;;;4.82;;
12896;SDS011;6516;35.028;32.372;2023-06-22T08:02:40;7.07;;;4.60;;
12896;SDS011;6516;35.028;32.372;2023-06-22T08:05:09;5.97;;;4.10;;
12896;SDS011;6516;35.028;32.372;2023-06-22T08:07:38;6.72;;;5.03;;
12896;SDS011;6516;35.028;32.372;2023-06-22T08:10:10;11.30;;;5.15;;
12896;SDS011;6516;35.028;32.372;2023-06-22T08:12:39;8.95;;;5.32;;
12896;SDS011;6516;35.028;32.372;2023-06-22T08:15:09;9.50;;;5.50;;
12896;SDS011;6516;35.028;32.372;2023-06-22T08:17:37;7.75;;;5.18;;
12896;SDS011;6516;35.028;32.372;2023-06-22T08:20:05;7.75;;;5.57;;
12896;SDS011;6516;35.028;32.372;2023-06-22T08:22:37;8.00;;;5.10;;
12896;SDS011;6516;35.028;32.372;2023-06-22T08:25:05;10.20;;;5.55;;
12896;SDS011;6516;35.028;32.372;2023-06-22T08:27:34;7.83;;;4.90;;
12896;SDS011;6516;35.028;32.372;2023-06-22T08:30:02;7.25;;;4.63;;
12896;SDS011;6516;35.028;32.372;2023-06-22T08:32:33;7.97;;;4.93;;
12896;SDS011;6516;35.028;32.372;2023-06-22T08:35:00;8.30;;;4.78;;
12896;SDS011;6516;35.028;32.372;2023-06-22T08:37:28;7.63;;;5.05;;
12896;SDS011;6516;35.028;32.372;2023-06-22T08:39:57;8.63;;;4.80;;
12896;SDS011;6516;35.028;32.372;2023-06-22T08:42:26;7.93;;;5.30;;
12896;SDS011;6516;35.028;32.372;2023-06-22T08:44:54;6.72;;;4.60;;
12896;SDS011;6516;35.028;32.372;2023-06-22T08:47:22;10.02;;;5.00;;
12896;SDS011;6516;35.028;32.372;2023-06-22T08:49:51;7.53;;;4.78;;
12896;SDS011;6516;35.028;32.372;2023-06-22T08:52:19;7.73;;;4.57;;
12896;SDS011;6516;35.028;32.372;2023-06-22T08:54:48;7.82;;;4.22;;
12896;SDS011;6516;35.028;32.372;2023-06-22T08:57:16;8.10;;;4.60;;
12896;SDS011;6516;35.028;32.372;2023-06-22T08:59:44;8.05;;;4.30;;
12896;SDS011;6516;35.028;32.372;2023-06-22T09:02:12;6.82;;;3.80;;
12896;SDS011;6516;35.028;32.372;2023-06-22T09:04:40;7.10;;;4.20;;
12896;SDS011;6516;35.028;32.372;2023-06-22T09:07:09;7.68;;;4.50;;
12896;SDS011;6516;35.028;32.372;2023-06-22T09:09:37;10.05;;;4.32;;
12896;SDS011;6516;35.028;32.372;2023-06-22T09:12:05;7.15;;;4.03;;
12896;SDS011;6516;35.028;32.372;2023-06-22T09:14:34;9.57;;;4.60;;
12896;SDS011;6516;35.028;32.372;2023-06-22T09:17:02;6.93;;;4.40;;
12896;SDS011;6516;35.028;32.372;2023-06-22T09:19:31;7.35;;;4.10;;
12896;SDS011;6516;35.028;32.372;2023-06-22T09:21:58;7.60;;;4.78;;
12896;SDS011;6516;35.028;32.372;2023-06-22T09:24:30;8.90;;;4.15;;
12896;SDS011;6516;35.028;32.372;2023-06-22T09:26:58;7.85;;;3.95;;
12896;SDS011;6516;35.028;32.372;2023-06-22T09:29:25;8.53;;;4.20;;
12896;SDS011;6516;35.028;32.372;2023-06-22T09:31:53;6.43;;;4.32;;
12896;SDS011;6516;35.028;32.372;2023-06-22T09:34:21;7.30;;;3.90;;
12896;SDS011;6516;35.028;32.372;2023-06-22T09:36:49;7.22;;;4.15;;
12896;SDS011;6516;35.028;32.372;2023-06-22T09:39:17;6.07;;;3.83;;
12896;SDS011;6516;35.028;32.372;2023-06-22T09:41:46;7.70;;;4.50;;
12896;SDS011;6516;35.028;32.372;2023-06-22T09:44:14;6.28;;;4.00;;
12896;SDS011;6516;35.028;32.372;2023-06-22T09:46:42;6.25;;;3.85;;
12896;SDS011;6516;35.028;32.372;2023-06-22T09:49:10;7.28;;;4.68;;
12896;SDS011;6516;35.028;32.372;2023-06-22T09:51:38;7.28;;;4.53;;
12896;SDS011;6516;35.028;32.372;2023-06-22T09:54:05;6.67;;;4.40;;
12896;SDS011;6516;35.028;32.372;2023-06-22T09:56:33;8.20;;;4.45;;
12896;SDS011;6516;35.028;32.372;2023-06-22T09:59:04;7.05;;;4.40;;
12896;SDS011;6516;35.028;32.372;2023-06-22T10:01:32;6.10;;;4.13;;
12896;SDS011;6516;35.028;32.372;2023-06-22T10:03:59;8.20;;;4.53;;
12896;SDS011;6516;35.028;32.372;2023-06-22T10:06:28;7.30;;;4.20;;
12896;SDS011;6516;35.028;32.372;2023-06-22T10:08:56;7.82;;;4.03;;
12896;SDS011;6516;35.028;32.372;2023-06-22T10:11:24;8.00;;;4.00;;
12896;SDS011;6516;35.028;32.372;2023-06-22T10:13:55;6.57;;;4.25;;
12896;SDS011;6516;35.028;32.372;2023-06-22T10:16:29;8.00;;;4.47;;
12896;SDS011;6516;35.028;32.372;2023-06-22T10:19:02;7.13;;;4.37;;
12896;SDS011;6516;35.028;32.372;2023-06-22T10:21:29;6.60;;;4.03;;
12896;SDS011;6516;35.028;32.372;2023-06-22T10:23:58;7.88;;;4.28;;
12896;SDS011;6516;35.028;32.372;2023-06-22T10:26:31;7.00;;;4.28;;
12896;SDS011;6516;35.028;32.372;2023-06-22T10:28:59;6.75;;;4.30;;
12896;SDS011;6516;35.028;32.372;2023-06-22T10:31:29;7.73;;;4.57;;
12896;SDS011;6516;35.028;32.372;2023-06-22T10:33:56;8.43;;;4.63;;
12896;SDS011;6516;35.028;32.372;2023-06-22T10:36:24;9.00;;;4.47;;
12896;SDS011;6516;35.028;32.372;2023-06-22T10:38:52;7.18;;;4.25;;
12896;SDS011;6516;35.028;32.372;2023-06-22T10:41:20;6.80;;;4.15;;
12896;SDS011;6516;35.028;32.372;2023-06-22T10:43:48;6.20;;;3.97;;
12896;SDS011;6516;35.028;32.372;2023-06-22T10:46:16;7.03;;;4.40;;
12896;SDS011;6516;35.028;32.372;2023-06-22T10:48:45;7.63;;;3.90;;
12896;SDS011;6516;35.028;32.372;2023-06-22T10:51:13;7.32;;;3.97;;
12896;SDS011;6516;35.028;32.372;2023-06-22T10:53:41;6.55;;;3.58;;
12896;SDS011;6516;35.028;32.372;2023-06-22T10:56:08;5.67;;;3.40;;
12896;SDS011;6516;35.028;32.372;2023-06-22T10:58:36;6.40;;;3.80;;
12896;SDS011;6516;35.028;32.372;2023-06-22T11:01:04;7.63;;;4.00;;
12896;SDS011;6516;35.028;32.372;2023-06-22T11:03:32;6.72;;;3.63;;
12896;SDS011;6516;35.028;32.372;2023-06-22T11:06:01;6.00;;;3.50;;
12896;SDS011;6516;35.028;32.372;2023-06-22T11:08:29;7.37;;;3.63;;
12896;SDS011;6516;35.028;32.372;2023-06-22T11:10:57;7.05;;;3.60;;
12896;SDS011;6516;35.028;32.372;2023-06-22T11:13:24;5.97;;;3.60;;
12896;SDS011;6516;35.028;32.372;2023-06-22T11:15:52;6.40;;;3.53;;
12896;SDS011;6516;35.028;32.372;2023-06-22T11:18:20;6.85;;;3.47;;
12896;SDS011;6516;35.028;32.372;2023-06-22T11:20:48;6.43;;;3.53;;
12896;SDS011;6516;35.028;32.372;2023-06-22T11:23:17;6.72;;;3.63;;
12896;SDS011;6516;35.028;32.372;2023-06-22T11:25:45;5.97;;;3.33;;
12896;SDS011;6516;35.028;32.372;2023-06-22T11:28:13;7.22;;;3.53;;
12896;SDS011;6516;35.028;32.372;2023-06-22T11:30:41;6.72;;;3.38;;
12896;SDS011;6516;35.028;32.372;2023-06-22T11:33:08;6.33;;;3.60;;
12896;SDS011;6516;35.028;32.372;2023-06-22T11:35:41;5.50;;;3.15;;
12896;SDS011;6516;35.028;32.372;2023-06-22T11:38:08;8.05;;;3.33;;
12896;SDS011;6516;35.028;32.372;2023-06-22T11:40:38;5.60;;;3.38;;
12896;SDS011;6516;35.028;32.372;2023-06-22T11:43:06;5.60;;;3.55;;
12896;SDS011;6516;35.028;32.372;2023-06-22T11:45:33;5.00;;;3.10;;
12896;SDS011;6516;35.028;32.372;2023-06-22T11:48:01;5.68;;;3.35;;
12896;SDS011;6516;35.028;32.372;2023-06-22T11:50:29;7.43;;;3.40;;
12896;SDS011;6516;35.028;32.372;2023-06-22T11:53:01;6.18;;;3.58;;
12896;SDS011;6516;35.028;32.372;2023-06-22T11:55:29;7.90;;;3.58;;
12896;SDS011;6516;35.028;32.372;2023-06-22T11:57:58;6.87;;;3.30;;
12896;SDS011;6516;35.028;32.372;2023-06-22T12:00:28;7.93;;;3.30;;
12896;SDS011;6516;35.028;32.372;2023-06-22T12:02:56;6.60;;;3.28;;
12896;SDS011;6516;35.028;32.372;2023-06-22T12:05:24;5.47;;;3.28;;
12896;SDS011;6516;35.028;32.372;2023-06-22T12:07:53;6.95;;;3.47;;
12896;SDS011;6516;35.028;32.372;2023-06-22T12:10:22;9.20;;;3.80;;
12896;SDS011;6516;35.028;32.372;2023-06-22T12:12:51;5.60;;;3.20;;
12896;SDS011;6516;35.028;32.372;2023-06-22T12:15:20;7.57;;;3.40;;
12896;SDS011;6516;35.028;32.372;2023-06-22T12:17:48;7.07;;;3.15;;
12896;SDS011;6516;35.028;32.372;2023-06-22T12:20:16;6.68;;;3.40;;
12896;SDS011;6516;35.028;32.372;2023-06-22T12:22:44;5.97;;;3.13;;
12896;SDS011;6516;35.028;32.372;2023-06-22T12:25:12;6.43;;;3.15;;
12896;SDS011;6516;35.028;32.372;2023-06-22T12:27:40;5.20;;;3.25;;
12896;SDS011;6516;35.028;32.372;2023-06-22T12:30:08;6.68;;;3.00;;
12896;SDS011;6516;35.028;32.372;2023-06-22T12:32:38;5.40;;;3.05;;
12896;SDS011;6516;35.028;32.372;2023-06-22T12:35:06;6.60;;;3.30;;
12896;SDS011;6516;35.028;32.372;2023-06-22T12:37:39;8.38;;;3.60;;
12896;SDS011;6516;35.028;32.372;2023-06-22T12:40:08;7.32;;;3.50;;
12896;SDS011;6516;35.028;32.372;2023-06-22T12:42:37;7.85;;;3.63;;
12896;SDS011;6516;35.028;32.372;2023-06-22T12:45:05;6.40;;;3.50;;
12896;SDS011;6516;35.028;32.372;2023-06-22T12:47:34;7.40;;;3.67;;
12896;SDS011;6516;35.028;32.372;2023-06-22T12:50:04;6.07;;;3.40;;
12896;SDS011;6516;35.028;32.372;2023-06-22T12:52:36;5.60;;;3.42;;
12896;SDS011;6516;35.028;32.372;2023-06-22T12:55:06;6.90;;;3.78;;
12896;SDS011;6516;35.028;32.372;2023-06-22T12:57:35;6.47;;;3.20;;
12896;SDS011;6516;35.028;32.372;2023-06-22T13:00:03;7.97;;;3.40;;
12896;SDS011;6516;35.028;32.372;2023-06-22T13:02:35;6.57;;;3.40;;
12896;SDS011;6516;35.028;32.372;2023-06-22T13:05:05;5.50;;;3.35;;
12896;SDS011;6516;35.028;32.372;2023-06-22T13:07:33;9.70;;;4.22;;
12896;SDS011;6516;35.028;32.372;2023-06-22T13:10:01;8.63;;;3.70;;
12896;SDS011;6516;35.028;32.372;2023-06-22T13:12:30;6.63;;;3.80;;
12896;SDS011;6516;35.028;32.372;2023-06-22T13:14:58;7.38;;;3.75;;
12896;SDS011;6516;35.028;32.372;2023-06-22T13:17:25;7.60;;;3.90;;
12896;SDS011;6516;35.028;32.372;2023-06-22T13:19:53;5.68;;;3.60;;
12896;SDS011;6516;35.028;32.372;2023-06-22T13:22:29;6.97;;;3.92;;
12896;SDS011;6516;35.028;32.372;2023-06-22T13:24:59;6.13;;;4.13;;
12896;SDS011;6516;35.028;32.372;2023-06-22T13:27:27;8.02;;;4.35;;
12896;SDS011;6516;35.028;32.372;2023-06-22T13:29:55;7.50;;;4.32;;
12896;SDS011;6516;35.028;32.372;2023-06-22T13:32:23;9.02;;;4.40;;
12896;SDS011;6516;35.028;32.372;2023-06-22T13:34:51;7.43;;;4.05;;
12896;SDS011;6516;35.028;32.372;2023-06-22T13:37:21;6.13;;;4.23;;
12896;SDS011;6516;35.028;32.372;2023-06-22T13:39:51;9.55;;;4.20;;
12896;SDS011;6516;35.028;32.372;2023-06-22T13:42:21;7.00;;;3.90;;
12896;SDS011;6516;35.028;32.372;2023-06-22T13:44:49;7.80;;;3.80;;
12896;SDS011;6516;35.028;32.372;2023-06-22T13:47:16;7.00;;;3.90;;
12896;SDS011;6516;35.028;32.372;2023-06-22T13:49:44;7.53;;;3.87;;
12896;SDS011;6516;35.028;32.372;2023-06-22T13:52:12;7.25;;;4.30;;
12896;SDS011;6516;35.028;32.372;2023-06-22T13:54:40;6.45;;;4.00;;
12896;SDS011;6516;35.028;32.372;2023-06-22T13:57:09;7.30;;;3.90;;
12896;SDS011;6516;35.028;32.372;2023-06-22T13:59:37;6.95;;;4.00;;
12896;SDS011;6516;35.028;32.372;2023-06-22T14:02:05;7.00;;;4.30;;
12896;SDS011;6516;35.028;32.372;2023-06-22T14:04:33;5.95;;;4.10;;
12896;SDS011;6516;35.028;32.372;2023-06-22T14:07:01;7.45;;;3.90;;
12896;SDS011;6516;35.028;32.372;2023-06-22T14:09:29;7.32;;;4.10;;
12896;SDS011;6516;35.028;32.372;2023-06-22T14:11:57;6.80;;;3.72;;
12896;SDS011;6516;35.028;32.372;2023-06-22T14:14:26;7.10;;;4.00;;
12896;SDS011;6516;35.028;32.372;2023-06-22T14:16:54;6.20;;;3.30;;
12896;SDS011;6516;35.028;32.372;2023-06-22T14:19:21;7.20;;;3.85;;
12896;SDS011;6516;35.028;32.372;2023-06-22T14:21:49;7.15;;;4.05;;
12896;SDS011;6516;35.028;32.372;2023-06-22T14:24:17;8.43;;;4.75;;
12896;SDS011;6516;35.028;32.372;2023-06-22T14:26:45;11.07;;;4.60;;
12896;SDS011;6516;35.028;32.372;2023-06-22T14:29:12;6.70;;;4.20;;
12896;SDS011;6516;35.028;32.372;2023-06-22T14:31:44;6.78;;;4.00;;
12896;SDS011;6516;35.028;32.372;2023-06-22T14:34:12;9.75;;;4.45;;
12896;SDS011;6516;35.028;32.372;2023-06-22T14:36:40;9.05;;;4.25;;
12896;SDS011;6516;35.028;32.372;2023-06-22T14:39:09;6.63;;;3.77;;
12896;SDS011;6516;35.028;32.372;2023-06-22T14:41:36;8.60;;;4.45;;
12896;SDS011;6516;35.028;32.372;2023-06-22T14:44:04;7.22;;;4.28;;
12896;SDS011;6516;35.028;32.372;2023-06-22T14:46:32;5.65;;;3.65;;
12896;SDS011;6516;35.028;32.372;2023-06-22T14:49:01;6.47;;;4.05;;
12896;SDS011;6516;35.028;32.372;2023-06-22T14:51:29;6.03;;;4.23;;
12896;SDS011;6516;35.028;32.372;2023-06-22T14:53:57;6.95;;;4.15;;